Real del Padre, Argentina
Current Conditions -  °F | °C
As of 11:00 PM on Monday 22 Dec 2014 (Local Time) from SAME Reporting Station
Clear Clear  
Wind Chill: 61°   Ceiling: Unl
Heat Index: 61°   Visibility: 6mi
Dew Point: 28°   Wind: 2mph
Humidity: 29%   Direction: 320°NW
Pressure: 30.21"   Gusts: NA
Location:  34.83°S, 67.77°W
Report Text: SAME 230200Z 32002KT CAVOK 16/M02 Q1023
Loading
Personal Weather Stations






























Interactive Weather Map New forecast layout! Learn more

10-Day Weather Forecast

Advertisements
Track Severe Weather on mobile